Time;durP1;ratioP1;P1;durP2;ratioP2;P2;SDS_P1;SDS_P2;PMS_P1;PMS_P2;Temp;Humidity;BMP_temperature;BMP_pressure;BME280_temperature;BME280_humidity;BME280_pressure;Samples;Min_cycle;Max_cycle;Signal;HPM_P1;HPM_P2
2021/06/02 00:02:14;;;;;;;2.08;1.60;;;24.00;43.20;;;;;;4958259;28;20514;-84
2021/06/02 00:04:47;;;;;;;2.67;1.80;;;24.00;43.30;;;;;;4967104;28;20050;-84
2021/06/02 00:07:23;;;;;;;2.55;1.67;;;24.00;43.40;;;;;;4965667;28;20121;-84
2021/06/02 00:09:50;;;;;;;2.03;1.45;;;23.90;43.30;;;;;;4967164;28;20027;-84
2021/06/02 00:12:16;;;;;;;2.40;1.67;;;23.90;43.40;;;;;;4961562;28;20034;-83
2021/06/02 00:14:42;;;;;;;1.85;1.70;;;23.90;43.50;;;;;;4956681;28;20050;-83
2021/06/02 00:17:09;;;;;;;2.70;1.60;;;23.90;43.50;;;;;;4940610;28;20026;-83
2021/06/02 00:19:36;;;;;;;2.38;1.73;;;23.80;43.50;;;;;;4955822;28;20046;-84
2021/06/02 00:22:04;;;;;;;2.42;1.95;;;23.80;43.60;;;;;;4943439;28;20491;-83
2021/06/02 00:24:30;;;;;;;2.10;1.63;;;23.80;43.70;;;;;;4952863;28;20499;-85
2021/06/02 00:27:02;;;;;;;2.33;1.67;;;23.70;43.60;;;;;;4955827;28;20029;-84
2021/06/02 00:29:30;;;;;;;2.25;1.83;;;23.70;43.70;;;;;;4962747;28;20195;-85
2021/06/02 00:31:57;;;;;;;3.15;1.75;;;23.70;43.80;;;;;;4943492;28;20054;-84
2021/06/02 00:34:23;;;;;;;3.28;1.98;;;23.60;43.70;;;;;;4954230;28;20050;-85
2021/06/02 00:36:50;;;;;;;2.28;1.80;;;23.60;43.80;;;;;;4968354;28;20534;-84
2021/06/02 00:39:17;;;;;;;2.25;1.60;;;23.60;43.90;;;;;;4972660;28;20038;-84
2021/06/02 00:41:45;;;;;;;2.40;1.88;;;23.60;44.00;;;;;;4939150;28;20038;-83
2021/06/02 00:44:14;;;;;;;2.90;1.85;;;23.50;44.00;;;;;;4961949;28;20034;-84
2021/06/02 00:46:42;;;;;;;2.42;1.83;;;23.50;44.00;;;;;;4949327;28;20022;-83
2021/06/02 00:49:22;;;;;;;3.90;2.10;;;23.50;44.00;;;;;;4936615;28;20393;-84
2021/06/02 00:51:50;;;;;;;2.90;1.90;;;23.40;44.10;;;;;;4932300;28;20117;-82
2021/06/02 00:54:17;;;;;;;1.98;1.60;;;23.50;44.20;;;;;;4967380;28;20015;-83
2021/06/02 00:56:49;;;;;;;2.60;1.98;;;23.40;44.20;;;;;;4953138;28;20042;-83
2021/06/02 00:59:22;;;;;;;3.30;2.30;;;23.40;44.30;;;;;;4967237;28;20479;-84
2021/06/02 01:01:49;;;;;;;2.58;2.08;;;23.30;44.20;;;;;;4931285;28;20057;-84
2021/06/02 01:04:15;;;;;;;2.42;1.92;;;23.30;44.30;;;;;;4971554;28;20031;-81
2021/06/02 01:06:44;;;;;;;2.88;2.22;;;23.30;44.30;;;;;;4950926;28;20065;-83
2021/06/02 01:09:10;;;;;;;2.72;2.22;;;23.30;44.40;;;;;;4971239;28;20026;-83
2021/06/02 01:11:39;;;;;;;2.15;1.90;;;23.20;44.40;;;;;;4971125;28;20129;-82
2021/06/02 01:14:05;;;;;;;2.83;2.15;;;23.20;44.50;;;;;;4945864;28;20026;-81
2021/06/02 01:16:33;;;;;;;2.75;2.25;;;23.20;44.50;;;;;;4955512;28;20039;-84
2021/06/02 01:18:59;;;;;;;3.08;2.25;;;23.20;44.60;;;;;;4971856;28;20073;-83
2021/06/02 01:21:28;;;;;;;2.83;2.00;;;23.10;44.50;;;;;;4940378;28;20155;-83
2021/06/02 01:23:58;;;;;;;3.10;2.40;;;23.10;44.70;;;;;;4984822;28;20026;-84
2021/06/02 01:26:25;;;;;;;4.25;2.55;;;23.10;44.80;;;;;;4966633;28;20051;-83
2021/06/02 01:28:52;;;;;;;2.55;2.03;;;23.10;44.80;;;;;;4971550;28;20054;-82
2021/06/02 01:31:34;;;;;;;3.60;2.45;;;23.10;44.80;;;;;;4940331;28;20030;-81
2021/06/02 01:34:29;;;;;;;3.88;2.42;;;23.00;44.90;;;;;;4945398;28;20072;-83
2021/06/02 01:37:49;;;;;;;2.53;2.08;;;23.00;44.90;;;;;;4954511;28;20039;-84
2021/06/02 01:40:39;;;;;;;3.25;2.08;;;22.90;45.00;;;;;;4915054;29;20063;-82
2021/06/02 01:43:43;;;;;;;3.90;2.40;;;22.90;45.00;;;;;;4966332;28;20031;-84
2021/06/02 01:46:43;;;;;;;3.13;2.30;;;22.90;45.10;;;;;;4967782;28;20077;-84
2021/06/02 01:49:15;;;;;;;3.58;2.70;;;22.80;45.20;;;;;;4901485;28;20035;-83
2021/06/02 01:51:41;;;;;;;3.97;2.50;;;22.80;45.20;;;;;;4963766;28;20034;-84
2021/06/02 01:54:31;;;;;;;2.83;2.22;;;22.70;45.20;;;;;;4961965;28;20039;-82
2021/06/02 01:56:57;;;;;;;3.40;2.58;;;22.70;45.40;;;;;;4966636;28;20360;-83
2021/06/02 01:59:31;;;;;;;3.55;2.58;;;22.70;45.40;;;;;;4939369;28;20033;-84
2021/06/02 02:01:57;;;;;;;;;;;22.70;45.50;;;;;;4964146;28;20476;-84
2021/06/02 02:05:00;;;;;;;3.35;2.42;;;22.70;45.50;;;;;;4928240;28;20038;-82
2021/06/02 02:07:35;;;;;;;4.10;2.58;;;22.70;45.60;;;;;;4971089;28;20023;-83
2021/06/02 02:10:20;;;;;;;3.45;2.58;;;22.60;45.60;;;;;;4969647;28;20019;-84
2021/06/02 02:13:30;;;;;;;3.90;2.92;;;22.60;45.70;;;;;;4940757;28;20501;-84
2021/06/02 02:16:14;;;;;;;3.90;2.60;;;22.50;45.80;;;;;;4882847;29;20036;-83
2021/06/02 02:19:02;;;;;;;3.90;2.80;;;22.50;45.90;;;;;;4928541;28;20039;-81
2021/06/02 02:21:36;;;;;;;4.00;2.92;;;22.50;45.90;;;;;;4965607;28;20391;-84
2021/06/02 02:24:11;;;;;;;3.80;2.72;;;22.40;45.90;;;;;;4958255;28;20123;-84
2021/06/02 02:27:11;;;;;;;3.72;2.70;;;22.40;46.00;;;;;;4952813;28;20026;-82
2021/06/02 02:29:58;;;;;;;4.10;2.65;;;22.40;46.10;;;;;;4968082;28;20061;-84
2021/06/02 02:32:36;;;;;;;3.80;2.78;;;22.40;46.10;;;;;;4955301;28;20022;-83
2021/06/02 02:35:27;;;;;;;4.60;2.92;;;22.30;46.10;;;;;;4956969;28;20042;-83
2021/06/02 02:38:15;;;;;;;3.92;2.63;;;22.30;46.20;;;;;;4937179;28;20460;-83
2021/06/02 02:41:09;;;;;;;4.18;3.17;;;22.30;46.30;;;;;;4950612;28;20086;-83
2021/06/02 02:44:02;;;;;;;3.65;2.78;;;22.30;46.30;;;;;;4963357;28;20019;-83
2021/06/02 02:47:05;;;;;;;3.50;2.50;;;22.30;46.40;;;;;;4938012;28;20031;-83
2021/06/02 02:49:56;;;;;;;3.72;2.72;;;22.30;46.50;;;;;;4954681;28;20023;-82
2021/06/02 02:52:43;;;;;;;3.53;2.53;;;22.20;46.50;;;;;;4942506;28;20094;-83
2021/06/02 02:55:19;;;;;;;3.92;2.88;;;22.20;46.50;;;;;;4968794;28;20035;-82
2021/06/02 02:57:57;;;;;;;4.20;3.05;;;22.10;46.50;;;;;;4958744;28;20024;-83
2021/06/02 03:00:35;;;;;;;3.85;2.63;;;22.10;46.60;;;;;;4953534;28;20037;-84
2021/06/02 03:03:19;;;;;;;3.92;2.92;;;22.10;46.60;;;;;;4938469;28;20037;-84
2021/06/02 03:06:20;;;;;;;4.03;3.10;;;22.10;46.80;;;;;;4953530;28;20030;-84
2021/06/02 03:09:22;;;;;;;4.05;2.97;;;22.10;46.80;;;;;;4948417;28;20035;-83
2021/06/02 03:11:52;;;;;;;3.63;2.47;;;22.00;46.80;;;;;;4950164;28;20108;-83
2021/06/02 03:14:20;;;;;;;3.75;2.90;;;22.00;46.80;;;;;;4934871;28;20085;-83
2021/06/02 03:17:06;;;;;;;4.15;2.55;;;22.00;46.80;;;;;;4952340;28;20094;-83
2021/06/02 03:19:50;;;;;;;4.60;2.83;;;22.00;47.00;;;;;;4953166;28;20086;-83
2021/06/02 03:22:28;;;;;;;3.70;2.70;;;22.00;47.00;;;;;;4963205;28;20372;-83
2021/06/02 03:25:16;;;;;;;3.50;2.80;;;21.90;47.00;;;;;;4943954;28;20031;-83
2021/06/02 03:28:07;;;;;;;3.95;3.08;;;21.90;47.10;;;;;;4967475;28;20758;-84
2021/06/02 03:30:56;;;;;;;5.05;3.35;;;21.90;47.10;;;;;;4913175;29;20039;-83
2021/06/02 03:33:33;;;;;;;4.90;3.20;;;21.90;47.20;;;;;;4942285;28;20027;-84
2021/06/02 03:36:07;;;;;;;3.95;3.00;;;21.80;47.10;;;;;;4935268;29;20055;-84
2021/06/02 03:38:50;;;;;;;4.00;3.03;;;21.80;47.20;;;;;;4926540;29;20411;-82
2021/06/02 03:41:41;;;;;;;4.70;2.90;;;21.70;47.20;;;;;;4949432;28;20031;-84
2021/06/02 03:44:16;;;;;;;3.80;2.78;;;21.70;47.40;;;;;;4921302;29;20032;-83
2021/06/02 03:46:45;;;;;;;4.28;3.30;;;21.70;47.40;;;;;;4944319;28;20019;-83
2021/06/02 03:49:16;;;;;;;5.57;3.25;;;21.70;47.40;;;;;;4955481;28;20118;-84
2021/06/02 03:51:56;;;;;;;4.72;3.30;;;21.70;47.50;;;;;;4919233;29;20023;-83
2021/06/02 03:54:40;;;;;;;3.85;2.95;;;21.60;47.50;;;;;;4918386;29;20057;-84
2021/06/02 03:57:34;;;;;;;3.80;2.78;;;21.60;47.60;;;;;;4924326;29;20030;-83
2021/06/02 04:00:23;;;;;;;4.53;3.10;;;21.60;47.70;;;;;;4937844;29;20031;-82
2021/06/02 04:02:58;;;;;;;4.78;3.28;;;21.60;47.70;;;;;;4945291;29;20472;-84
2021/06/02 04:05:46;;;;;;;4.43;3.05;;;21.50;47.70;;;;;;4928606;29;20074;-83
2021/06/02 04:08:45;;;;;;;3.92;3.05;;;21.50;47.80;;;;;;4930734;29;20110;-82
2021/06/02 04:11:25;;;;;;;4.57;3.00;;;21.50;47.80;;;;;;4951812;28;20050;-83
2021/06/02 04:13:59;;;;;;;4.10;2.92;;;21.50;47.80;;;;;;4936954;29;20082;-83
2021/06/02 04:16:35;;;;;;;4.10;3.20;;;21.40;47.80;;;;;;4937058;29;20031;-83
2021/06/02 04:19:09;;;;;;;4.68;3.20;;;21.40;47.80;;;;;;4931192;29;20078;-84
2021/06/02 04:21:41;;;;;;;4.80;3.20;;;21.40;48.00;;;;;;4952171;29;20122;-82
2021/06/02 04:24:10;;;;;;;4.53;3.35;;;21.40;48.00;;;;;;4928676;29;20131;-83
2021/06/02 04:26:37;;;;;;;3.97;3.08;;;21.40;48.10;;;;;;4938206;29;20023;-83
2021/06/02 04:29:12;;;;;;;5.72;3.38;;;21.40;48.10;;;;;;4948645;28;20043;-83
2021/06/02 04:31:50;;;;;;;4.78;3.28;;;21.30;48.10;;;;;;4955797;28;20027;-81
2021/06/02 04:34:17;;;;;;;4.43;3.15;;;21.30;48.10;;;;;;4952892;28;20493;-83
2021/06/02 04:36:43;;;;;;;4.78;3.33;;;21.30;48.10;;;;;;4972059;28;20287;-83
2021/06/02 04:39:10;;;;;;;5.15;3.60;;;21.30;48.30;;;;;;4952773;28;20042;-83
2021/06/02 04:41:39;;;;;;;4.57;3.30;;;21.30;48.30;;;;;;4970472;28;20038;-82
2021/06/02 04:44:07;;;;;;;5.30;3.60;;;21.20;48.30;;;;;;4942722;28;20038;-85
2021/06/02 04:46:33;;;;;;;4.45;3.30;;;21.30;48.40;;;;;;4966775;28;20035;-88
2021/06/02 04:48:59;;;;;;;4.88;3.50;;;21.30;48.50;;;;;;4973871;28;20022;-86
2021/06/02 04:51:36;;;;;;;4.47;3.35;;;21.30;48.50;;;;;;4955935;28;20031;-87
2021/06/02 04:54:26;;;;;;;4.68;3.35;;;21.20;48.60;;;;;;4949495;28;20050;-88
2021/06/02 04:57:29;;;;;;;5.45;3.85;;;21.20;48.60;;;;;;4970827;28;20095;-87
2021/06/02 05:00:16;;;;;;;6.10;3.50;;;21.20;48.60;;;;;;4933981;28;20019;-89
2021/06/02 05:03:21;;;;;;;4.60;3.20;;;21.20;48.60;;;;;;4954198;28;20234;-90
2021/06/02 05:06:08;;;;;;;4.38;3.50;;;21.10;48.60;;;;;;4968713;28;20126;-89
2021/06/02 05:08:45;;;;;;;4.55;3.15;;;21.10;48.70;;;;;;4950945;28;20034;-90
2021/06/02 05:11:14;;;;;;;4.25;3.40;;;21.10;48.70;;;;;;4952685;28;20090;-88
2021/06/02 05:14:17;;;;;;;4.90;3.55;;;21.10;48.70;;;;;;4967569;28;20046;-89
2021/06/02 05:17:19;;;;;;;4.95;3.58;;;21.10;48.80;;;;;;4953878;28;20035;-91
2021/06/02 05:23:03;;;;;;;4.28;3.17;;;21.10;48.80;;;;;;4965705;28;21287;-85
2021/06/02 05:25:44;;;;;;;4.88;3.47;;;21.00;48.90;;;;;;4896954;29;20033;-88
2021/06/02 05:28:46;;;;;;;5.28;3.80;;;21.00;48.90;;;;;;4888479;29;20043;-89
2021/06/02 05:31:20;;;;;;;4.25;3.20;;;21.00;49.00;;;;;;4928375;29;20490;-89
2021/06/02 05:34:15;;;;;;;5.37;3.70;;;21.00;49.00;;;;;;4953194;29;20546;-92
2021/06/02 05:37:20;;;;;;;5.20;3.40;;;21.00;49.10;;;;;;4899892;29;20290;-92
2021/06/02 05:40:14;;;;;;;5.50;3.63;;;21.00;49.10;;;;;;4950703;28;20039;-89
2021/06/02 05:43:04;;;;;;;5.10;3.58;;;21.00;49.20;;;;;;4950280;28;20037;-92
2021/06/02 05:46:10;;;;;;;5.72;3.90;;;21.00;49.20;;;;;;4938381;29;20031;-92
2021/06/02 05:48:41;;;;;;;;;;;21.00;49.30;;;;;;4945658;28;20028;-87
2021/06/02 05:51:19;;;;;;;4.97;3.42;;;20.90;49.10;;;;;;4920866;29;19957;-89
2021/06/02 05:53:51;;;;;;;4.75;3.58;;;21.00;49.30;;;;;;4951495;29;20054;-90
2021/06/02 05:56:36;;;;;;;5.55;4.13;;;21.00;49.40;;;;;;4955847;29;20039;-89
2021/06/02 05:59:23;;;;;;;4.45;3.63;;;20.90;49.50;;;;;;4920594;29;20031;-92
2021/06/02 06:02:11;;;;;;;5.18;3.60;;;21.00;49.60;;;;;;4916320;29;20480;-90
2021/06/02 06:05:14;;;;;;;5.75;4.18;;;21.00;49.60;;;;;;4946433;29;20035;-91
2021/06/02 06:08:10;;;;;;;6.00;3.90;;;21.00;49.60;;;;;;4930168;29;20027;-91
2021/06/02 06:11:22;;;;;;;4.57;3.33;;;21.00;49.60;;;;;;4938254;29;20023;-92
2021/06/02 06:13:54;;;;;;;4.95;3.70;;;20.90;49.60;;;;;;4951131;28;20031;-91
2021/06/02 06:16:40;;;;;;;4.88;3.67;;;21.00;49.60;;;;;;4948279;29;20050;-90
2021/06/02 06:19:28;;;;;;;5.20;3.65;;;20.90;49.50;;;;;;4957489;28;20023;-90
2021/06/02 06:21:59;;;;;;;4.90;3.67;;;21.00;49.60;;;;;;4908341;29;20023;-92
2021/06/02 06:24:40;;;;;;;5.45;3.78;;;21.00;49.60;;;;;;4927827;29;20023;-92
2021/06/02 06:27:18;;;;;;;4.90;3.97;;;21.00;49.70;;;;;;4924222;29;20106;-90
2021/06/02 06:29:57;;;;;;;5.25;3.92;;;21.00;49.70;;;;;;4950218;28;21323;-92
2021/06/02 06:32:25;;;;;;;4.97;3.67;;;21.00;49.70;;;;;;4952714;28;20027;-91
2021/06/02 06:34:53;;;;;;;5.32;3.50;;;21.00;49.70;;;;;;4912987;29;20035;-86
2021/06/02 06:37:20;;;;;;;5.13;3.97;;;21.00;49.70;;;;;;4943126;29;20031;-89
2021/06/02 06:39:50;;;;;;;4.70;3.42;;;21.00;49.70;;;;;;4935615;29;20035;-88
2021/06/02 06:42:20;;;;;;;5.03;3.80;;;21.00;49.70;;;;;;4950341;29;20019;-88
2021/06/02 06:44:50;;;;;;;5.47;4.32;;;21.10;49.80;;;;;;4940092;29;20039;-87
2021/06/02 06:47:17;;;;;;;5.22;4.00;;;21.10;49.80;;;;;;4953722;29;20029;-89
2021/06/02 06:49:48;;;;;;;5.43;4.10;;;21.00;49.80;;;;;;4912824;29;20051;-90
2021/06/02 06:52:15;;;;;;;5.32;3.75;;;21.10;49.80;;;;;;4950752;28;20023;-89
2021/06/02 06:54:42;;;;;;;5.90;4.07;;;21.10;49.80;;;;;;4911824;29;20036;-88
2021/06/02 06:57:09;;;;;;;5.00;3.63;;;21.10;49.80;;;;;;4954387;29;20053;-88
2021/06/02 06:59:38;;;;;;;4.43;3.30;;;21.10;49.80;;;;;;4921605;29;20388;-87
2021/06/02 07:02:04;;;;;;;5.13;3.95;;;21.10;49.90;;;;;;4953339;28;20058;-89
2021/06/02 07:04:32;;;;;;;5.43;3.83;;;21.10;49.90;;;;;;4935813;29;20359;-91
2021/06/02 07:06:58;;;;;;;5.00;3.85;;;21.10;49.90;;;;;;4928151;29;20936;-83
2021/06/02 07:09:25;;;;;;;6.63;4.47;;;21.10;50.00;;;;;;4937149;29;20050;-85
2021/06/02 07:11:55;;;;;;;5.13;3.65;;;21.20;50.00;;;;;;4919880;29;20432;-90
2021/06/02 07:14:26;;;;;;;5.80;4.13;;;21.20;50.10;;;;;;4926751;29;20031;-88
2021/06/02 07:16:53;;;;;;;6.03;4.32;;;21.20;50.00;;;;;;4933417;29;20062;-87
2021/06/02 07:19:22;;;;;;;5.30;3.80;;;21.20;50.00;;;;;;4939154;29;20023;-88
2021/06/02 07:21:49;;;;;;;5.07;3.67;;;21.20;50.10;;;;;;4944671;29;20024;-85
2021/06/02 07:24:19;;;;;;;5.03;3.80;;;21.20;50.10;;;;;;4953319;28;20113;-88
2021/06/02 07:26:46;;;;;;;5.22;4.22;;;21.30;50.20;;;;;;4934782;29;20118;-87
2021/06/02 07:29:13;;;;;;;4.93;3.60;;;21.30;50.10;;;;;;4932174;28;20387;-88
2021/06/02 07:31:39;;;;;;;5.68;4.10;;;21.30;50.10;;;;;;4916528;28;20043;-86
2021/06/02 07:34:06;;;;;;;5.65;4.28;;;21.40;50.20;;;;;;4959525;28;20563;-88
2021/06/02 07:36:32;;;;;;;5.97;3.83;;;21.40;50.10;;;;;;4957245;28;20043;-88
2021/06/02 07:38:59;;;;;;;4.75;3.58;;;21.40;50.10;;;;;;4959058;28;20506;-88
2021/06/02 07:41:25;;;;;;;4.82;3.33;;;21.50;50.10;;;;;;4941801;28;20027;-87
2021/06/02 07:43:51;;;;;;;5.22;3.90;;;21.50;50.00;;;;;;4941845;28;20035;-88
2021/06/02 07:46:16;;;;;;;5.13;3.97;;;21.60;50.00;;;;;;4943142;28;20367;-88
2021/06/02 07:48:42;;;;;;;5.20;3.80;;;21.60;50.00;;;;;;4952331;28;20518;-88
2021/06/02 07:51:08;;;;;;;5.18;3.47;;;21.70;49.90;;;;;;4947664;28;20035;-89
2021/06/02 07:53:34;;;;;;;5.32;4.10;;;21.70;49.90;;;;;;4959477;28;20095;-89
2021/06/02 07:56:00;;;;;;;4.95;3.70;;;21.80;49.90;;;;;;4967033;28;20070;-89
2021/06/02 07:58:25;;;;;;;5.07;3.67;;;21.80;49.70;;;;;;4972769;28;20384;-88
2021/06/02 08:00:51;;;;;;;5.03;3.70;;;21.90;49.70;;;;;;4959000;28;20404;-89
2021/06/02 08:03:17;;;;;;;5.43;4.18;;;22.00;49.70;;;;;;4927431;28;20048;-89
2021/06/02 08:05:43;;;;;;;5.03;3.92;;;22.10;49.70;;;;;;4959638;28;20039;-89
2021/06/02 08:08:09;;;;;;;5.57;4.20;;;22.10;49.70;;;;;;4933932;28;20375;-87
2021/06/02 08:10:35;;;;;;;5.18;3.88;;;22.20;49.70;;;;;;4939370;29;20492;-85
2021/06/02 08:13:02;;;;;;;4.88;3.80;;;22.30;49.60;;;;;;4934554;29;20031;-87
2021/06/02 08:15:28;;;;;;;5.45;3.78;;;22.40;49.60;;;;;;4960757;28;20042;-88
2021/06/02 08:17:53;;;;;;;4.80;3.63;;;22.40;49.60;;;;;;4939938;28;20035;-89
2021/06/02 08:20:19;;;;;;;5.85;3.85;;;22.50;49.60;;;;;;4974113;28;20035;-87
2021/06/02 08:22:46;;;;;;;5.15;3.72;;;22.60;49.50;;;;;;4943272;28;20041;-87
2021/06/02 08:25:14;;;;;;;5.47;3.85;;;22.70;49.50;;;;;;4973744;28;20035;-87
2021/06/02 08:27:40;;;;;;;5.30;4.03;;;22.80;49.50;;;;;;4974971;28;20027;-89
2021/06/02 08:30:08;;;;;;;5.63;4.05;;;22.80;49.40;;;;;;4956881;28;20519;-86
2021/06/02 08:32:35;;;;;;;4.88;3.67;;;22.90;49.50;;;;;;4968330;28;20026;-86
2021/06/02 08:35:01;;;;;;;4.85;3.63;;;23.00;49.50;;;;;;4954622;28;20098;-87
2021/06/02 08:37:27;;;;;;;5.22;3.80;;;23.10;49.50;;;;;;4957691;28;20039;-85
2021/06/02 08:39:53;;;;;;;5.60;3.90;;;23.20;49.50;;;;;;4939346;29;20084;-87
2021/06/02 08:42:19;;;;;;;4.70;3.60;;;23.30;49.50;;;;;;4925257;28;20030;-85
2021/06/02 08:44:45;;;;;;;4.78;3.33;;;23.30;49.40;;;;;;4939409;29;20086;-87
2021/06/02 08:47:11;;;;;;;4.78;3.70;;;23.40;49.40;;;;;;4931949;28;20032;-87
2021/06/02 08:49:36;;;;;;;4.63;3.58;;;23.60;49.40;;;;;;4951828;28;20556;-88
2021/06/02 08:52:08;;;;;;;4.60;3.40;;;23.60;49.20;;;;;;4968714;28;20066;-88
2021/06/02 08:54:35;;;;;;;4.53;3.42;;;23.70;49.20;;;;;;4966540;28;20045;-88
2021/06/02 08:57:06;;;;;;;5.45;3.00;;;23.80;49.10;;;;;;4928195;29;20038;-87
2021/06/02 08:59:33;;;;;;;3.88;3.10;;;23.90;49.10;;;;;;4969505;28;20028;-88
2021/06/02 09:01:59;;;;;;;4.68;3.58;;;24.00;49.00;;;;;;4936276;29;20098;-79
2021/06/02 09:04:26;;;;;;;4.95;3.85;;;24.10;49.50;;;;;;4948258;28;20380;-79
2021/06/02 09:06:53;;;;;;;5.88;4.80;;;24.20;49.70;;;;;;4963619;28;20023;-79
2021/06/02 09:09:19;;;;;;;5.95;4.18;;;24.30;49.70;;;;;;4945007;28;20038;-80
2021/06/02 09:11:50;;;;;;;6.97;4.70;;;24.40;49.80;;;;;;4961741;28;20033;-79
2021/06/02 09:14:28;;;;;;;7.13;4.70;;;24.60;49.90;;;;;;4951800;28;20383;-79
2021/06/02 09:17:02;;;;;;;6.35;4.30;;;24.70;50.10;;;;;;4965471;28;20030;-79
2021/06/02 09:19:39;;;;;;;5.78;4.05;;;24.80;50.10;;;;;;4944840;28;20035;-79
2021/06/02 09:22:07;;;;;;;6.95;3.90;;;24.90;50.10;;;;;;4958842;28;20054;-80
2021/06/02 09:24:56;;;;;;;5.88;3.78;;;25.10;50.00;;;;;;4929558;28;20027;-84
2021/06/02 09:27:59;;;;;;;5.68;3.60;;;25.10;49.70;;;;;;4951455;28;20023;-83
2021/06/02 09:30:28;;;;;;;3.53;2.85;;;25.30;49.40;;;;;;4951503;28;20821;-82
2021/06/02 09:32:59;;;;;;;4.70;3.25;;;25.40;49.00;;;;;;4955711;28;20035;-81
2021/06/02 09:35:35;;;;;;;5.95;3.40;;;25.50;48.70;;;;;;4938705;28;20038;-81
2021/06/02 09:38:01;;;;;;;5.30;3.53;;;25.60;48.50;;;;;;4959438;28;20034;-82
2021/06/02 09:40:39;;;;;;;4.28;3.10;;;25.60;48.30;;;;;;4965499;28;20018;-82
2021/06/02 09:43:06;;;;;;;4.63;3.45;;;25.80;48.20;;;;;;4938185;29;20031;-82
2021/06/02 09:45:32;;;;;;;4.28;3.10;;;25.90;48.20;;;;;;4961697;28;20034;-81
2021/06/02 09:48:01;;;;;;;4.20;2.95;;;26.00;48.00;;;;;;4961358;28;20044;-82
2021/06/02 09:50:30;;;;;;;4.15;2.97;;;26.10;47.60;;;;;;4963948;28;20490;-81
2021/06/02 09:52:58;;;;;;;4.40;3.10;;;26.20;47.40;;;;;;4970335;28;20031;-81
2021/06/02 09:55:31;;;;;;;5.97;2.88;;;26.30;47.10;;;;;;4939368;28;20476;-80
2021/06/02 09:58:06;;;;;;;2.58;2.10;;;26.40;46.70;;;;;;4964747;28;20027;-80
2021/06/02 10:00:33;;;;;;;3.42;2.35;;;26.50;46.50;;;;;;4970400;28;20113;-80
2021/06/02 10:03:04;;;;;;;3.65;1.92;;;26.60;46.20;;;;;;4924311;28;20035;-83
2021/06/02 10:05:41;;;;;;;3.28;2.15;;;26.70;45.90;;;;;;4933164;28;20337;-82
2021/06/02 10:08:11;;;;;;;2.83;2.17;;;26.80;45.80;;;;;;4964543;28;20037;-83
2021/06/02 10:10:38;;;;;;;3.35;1.98;;;26.90;45.60;;;;;;4945959;28;20023;-81
2021/06/02 10:13:07;;;;;;;2.95;1.95;;;27.00;45.30;;;;;;4959700;28;20031;-80
2021/06/02 10:15:37;;;;;;;3.53;2.20;;;27.10;45.20;;;;;;4962504;28;20101;-81
2021/06/02 10:18:05;;;;;;;2.78;2.10;;;27.10;44.70;;;;;;4958070;28;20027;-82
2021/06/02 10:20:31;;;;;;;2.97;2.08;;;27.20;44.50;;;;;;4967045;28;20019;-83
2021/06/02 10:22:59;;;;;;;3.25;1.90;;;27.30;44.30;;;;;;4942490;28;20530;-82
2021/06/02 10:25:26;;;;;;;2.33;1.70;;;27.30;44.10;;;;;;4944018;28;20495;-82
2021/06/02 10:27:54;;;;;;;2.85;2.00;;;27.40;44.00;;;;;;4940069;29;20035;-79
2021/06/02 10:30:25;;;;;;;2.00;1.70;;;27.50;43.50;;;;;;4965728;28;20090;-81
2021/06/02 10:32:54;;;;;;;2.28;1.80;;;27.50;43.20;;;;;;4957182;28;20081;-80
2021/06/02 10:35:20;;;;;;;2.95;1.90;;;27.60;43.00;;;;;;4965244;28;20035;-81
2021/06/02 10:37:46;;;;;;;2.97;1.95;;;27.70;43.40;;;;;;4963661;28;20488;-82
2021/06/02 10:40:20;;;;;;;2.70;1.75;;;27.70;42.30;;;;;;4968475;28;20027;-81
2021/06/02 10:43:13;;;;;;;2.63;1.80;;;27.80;42.10;;;;;;4934716;29;20027;-81
2021/06/02 10:45:48;;;;;;;2.63;1.90;;;27.90;41.90;;;;;;4957902;28;20491;-81
2021/06/02 10:48:13;;;;;;;2.33;1.60;;;27.90;41.80;;;;;;4945536;28;20030;-82
2021/06/02 10:50:44;;;;;;;2.60;1.70;;;28.10;41.90;;;;;;4947888;28;20035;-81
2021/06/02 10:53:23;;;;;;;2.60;1.73;;;28.10;41.70;;;;;;4931390;29;20094;-81
2021/06/02 10:55:55;;;;;;;2.00;1.80;;;28.20;41.70;;;;;;4952574;28;20046;-81
2021/06/02 10:58:29;;;;;;;2.90;1.80;;;28.20;41.50;;;;;;4952789;28;20019;-81
2021/06/02 11:01:06;;;;;;;2.83;1.80;;;28.30;41.20;;;;;;4956318;28;20468;-79
2021/06/02 11:03:34;;;;;;;2.55;1.70;;;28.40;41.10;;;;;;4962410;28;20027;-81
2021/06/02 11:06:15;;;;;;;2.08;1.67;;;28.40;40.70;;;;;;4950618;28;20038;-82
2021/06/02 11:08:52;;;;;;;1.88;1.50;;;28.50;40.40;;;;;;4966889;28;20102;-82
2021/06/02 11:11:25;;;;;;;1.77;1.55;;;28.50;40.20;;;;;;4947237;28;20056;-82
2021/06/02 11:14:16;;;;;;;2.53;1.52;;;28.60;40.10;;;;;;4954716;28;20034;-81
2021/06/02 11:16:47;;;;;;;1.77;1.60;;;28.70;39.90;;;;;;4941113;29;20035;-85
2021/06/02 11:19:20;;;;;;;2.05;1.60;;;28.70;39.60;;;;;;4970527;28;20057;-85
2021/06/02 11:21:52;;;;;;;2.05;1.70;;;28.70;39.20;;;;;;4938974;29;20034;-84
2021/06/02 11:27:11;;;;;;;2.13;1.70;;;28.80;39.10;;;;;;4959791;28;20031;-85
2021/06/02 11:29:58;;;;;;;1.80;1.40;;;28.80;38.90;;;;;;4963120;28;20047;-84
2021/06/02 11:32:32;;;;;;;1.40;1.30;;;28.80;38.90;;;;;;4945726;28;20041;-83
2021/06/02 11:35:03;;;;;;;;;;;28.90;38.90;;;;;;4945088;29;20481;-82
2021/06/02 11:37:31;;;;;;;2.05;1.48;;;28.90;39.40;;;;;;4967486;28;19962;-80
2021/06/02 11:40:03;;;;;;;3.65;1.98;;;28.90;39.20;;;;;;4950099;28;20086;-83
2021/06/02 11:42:39;;;;;;;1.58;1.45;;;28.90;39.20;;;;;;4946549;28;20058;-84
2021/06/02 11:45:06;;;;;;;1.92;1.67;;;28.90;39.00;;;;;;4952963;28;20476;-83
2021/06/02 11:47:32;;;;;;;1.67;1.50;;;28.90;38.80;;;;;;4972139;28;20031;-83
2021/06/02 11:50:09;;;;;;;1.65;1.35;;;28.90;38.40;;;;;;4931675;28;20113;-84
2021/06/02 11:52:35;;;;;;;2.95;1.60;;;28.80;38.10;;;;;;4953879;28;20118;-84
2021/06/02 11:55:12;;;;;;;1.85;1.60;;;28.90;38.30;;;;;;4950574;28;20086;-82
2021/06/02 11:57:40;;;;;;;2.63;1.55;;;28.90;38.20;;;;;;4944065;28;20038;-80
2021/06/02 12:00:14;;;;;;;1.75;1.52;;;28.90;38.20;;;;;;4965729;28;20074;-88
2021/06/02 12:02:41;;;;;;;2.47;1.40;;;28.90;38.50;;;;;;4955610;28;20045;-87
2021/06/02 12:05:23;;;;;;;3.45;1.42;;;28.90;39.40;;;;;;4971315;28;20106;-87
2021/06/02 12:07:59;;;;;;;1.85;1.55;;;29.00;39.30;;;;;;4958902;28;20026;-87
2021/06/02 12:10:43;;;;;;;1.92;1.70;;;28.90;39.60;;;;;;4958332;28;20029;-88
2021/06/02 12:13:19;;;;;;;1.50;1.40;;;29.00;40.10;;;;;;4935534;28;20051;-89
2021/06/02 12:16:04;;;;;;;2.20;1.60;;;29.00;40.30;;;;;;4963167;28;20027;-88
2021/06/02 12:18:35;;;;;;;1.55;1.33;;;29.00;40.70;;;;;;4940633;28;20039;-89
2021/06/02 12:21:07;;;;;;;1.70;1.25;;;29.00;40.90;;;;;;4966526;28;20039;-87
2021/06/02 12:23:34;;;;;;;1.83;1.50;;;29.00;41.10;;;;;;4960496;28;20036;-88
2021/06/02 12:25:59;;;;;;;1.73;1.33;;;29.10;41.40;;;;;;4966659;28;20027;-85
2021/06/02 12:28:25;;;;;;;2.25;1.55;;;29.10;41.50;;;;;;4934337;28;20484;-84
2021/06/02 12:30:51;;;;;;;1.95;1.60;;;29.10;41.60;;;;;;4946812;28;20051;-85
2021/06/02 12:33:17;;;;;;;1.92;1.50;;;29.10;41.70;;;;;;4937880;28;20034;-84
2021/06/02 12:35:44;;;;;;;1.70;1.50;;;29.10;41.80;;;;;;4960651;28;20119;-86
2021/06/02 12:38:18;;;;;;;1.48;1.20;;;29.10;42.00;;;;;;4944918;28;20034;-84
2021/06/02 12:40:55;;;;;;;2.00;1.50;;;29.20;42.60;;;;;;4956514;28;20309;-86
2021/06/02 12:43:24;;;;;;;1.35;1.25;;;29.20;42.30;;;;;;4952385;28;20024;-84
2021/06/02 12:45:52;;;;;;;1.50;1.38;;;29.20;42.40;;;;;;4936469;28;20487;-78
2021/06/02 12:48:33;;;;;;;1.45;1.35;;;29.20;42.50;;;;;;4970800;28;20058;-80
2021/06/02 12:50:59;;;;;;;2.28;1.70;;;29.20;41.70;;;;;;4954245;28;20083;-80
2021/06/02 12:53:37;;;;;;;2.22;1.80;;;29.20;40.90;;;;;;4948053;28;20114;-79
2021/06/02 12:56:04;;;;;;;2.55;1.67;;;29.10;40.30;;;;;;4958074;28;20058;-79
2021/06/02 12:58:31;;;;;;;2.97;1.92;;;29.00;39.90;;;;;;4969993;28;20056;-79
2021/06/02 13:01:11;;;;;;;3.28;1.70;;;29.00;39.70;;;;;;4948310;28;20082;-80
2021/06/02 13:03:44;;;;;;;2.22;1.52;;;29.00;39.40;;;;;;4972019;28;20509;-80
2021/06/02 13:06:32;;;;;;;2.60;2.03;;;29.00;39.20;;;;;;4953067;28;20031;-80
2021/06/02 13:09:07;;;;;;;2.45;1.75;;;28.90;39.00;;;;;;4951975;28;20031;-79
2021/06/02 13:11:34;;;;;;;2.47;1.80;;;28.90;38.90;;;;;;4965386;28;20090;-79
2021/06/02 13:14:02;;;;;;;2.88;1.80;;;28.90;38.80;;;;;;4971828;28;20038;-80
2021/06/02 13:16:29;;;;;;;1.73;1.60;;;28.90;38.70;;;;;;4972365;28;20062;-78
2021/06/02 13:19:07;;;;;;;2.38;1.88;;;28.80;38.60;;;;;;4919693;29;20512;-79
2021/06/02 13:21:35;;;;;;;2.35;1.75;;;28.80;38.60;;;;;;4944067;29;20496;-78
2021/06/02 13:24:14;;;;;;;3.38;2.13;;;28.80;38.70;;;;;;4952898;28;20090;-78
2021/06/02 13:26:48;;;;;;;2.90;1.98;;;28.80;38.70;;;;;;4942987;29;20037;-78
2021/06/02 13:29:13;;;;;;;2.63;1.90;;;28.80;38.50;;;;;;4939740;28;20038;-78
2021/06/02 13:31:53;;;;;;;2.85;1.70;;;28.80;38.50;;;;;;4953157;28;20039;-78
2021/06/02 13:34:28;;;;;;;2.30;1.90;;;28.80;38.50;;;;;;4964484;28;20055;-80